Terminal Aerodrome Forecast
Issued by NWS Knoxville/Tri Cities, TN

Home | Current Version | Previous Version | Text Only | Print | Product List | Glossary On
Versions: 1 2 3 4 5 6 7 8 9 10 11 12 13 14 15 16 17 18 19 20 21 22 23 24 25 26 27 28 29 30 31 32 33 34 35 36 37 38 39 40 41 42 43 44
000
FTUS44 KMRX 150523
TAFTRI
TAF
KTRI 150523Z 1506/1606 00000KT 4SM BR SCT020 BKN040
     FM150800 00000KT 4SM BR BKN022
      TEMPO 1508/1512 1SM BR SCT003 OVC012
     FM151300 00000KT P6SM BKN025
     FM151700 25005KT P6SM BKN050
     FM160100 00000KT P6SM SCT040 BKN080=

USA.gov is the U.S. government's official web portal to all federal, state and local government web resources and services.